aviador You're here:

OIAH Decoded Metar

GACHSARAN in IRAN
Report Time2017-12-11 05:00:00
UTC Time2017-12-11 05:31:38
Flight Rules vfr VFR
WindCalm
Visibility9999 m
Phenomena:N/A
Clouds:N/A
Expected CloudBase > 3,600 ft AGL from Temp-Dew spread
CeilingNone
Temp10°C (ISA -0)
Dew Point01°C (54% RH)
AAT8.2°C
QNH1023 hPa
Density Alt2,159 ft
Elevation2,421 ft
Report Wrong Elevation
Raw Report
METAR OIAH 110500Z 00000KT CAVOK 10/01 Q1023=

Extra information for OIAH:More info

Metar Taf Metar & Taf Last 4 Metars F.Rules Stats Wind Profile Meteogram Temp Stats Airport Information Weather charts Add Link Nearby VenuesMetar ALERT Operation Metar Decoded Social comments